Orbital elements of FENGYUN 1C DEB
| Launched | 9 May 1999 |
| Flight ended | – |
| Launch site | Taiyuan Space Center, PRC |
| Owner | People's Republic of China |
| NORAD ID | 30362 |
| Date fetched |
Epoch osculation |
Inc. [°] |
Ecc. | RA asc node [hr] |
Arg Peri. [°] |
Mean anom [°] |
Mean motion [rev/day] |
Abs. mag |
| Date fetched |
Epoch osculation |
Inc. [°] |
Ecc. | RA asc node [hr] |
Arg Peri. [°] |
Mean anom [°] |
Mean motion [rev/day] |
Abs. mag |
| 2026 May 08 17:57 | 2026 May 04 18:00:19 | 99.0529 | 0.00922 | 3.6005 | 301.5153 | 57.7039 | 14.13028 | – |
| 2026 May 07 17:58 | 2026 May 04 18:00:19 | 99.0529 | 0.00922 | 3.6005 | 301.5153 | 57.7039 | 14.13028 | – |
| 2026 May 06 17:57 | 2026 May 04 18:00:19 | 99.0529 | 0.00922 | 3.6005 | 301.5153 | 57.7039 | 14.13028 | – |
| 2026 May 05 17:57 | 2026 May 04 18:00:19 | 99.0529 | 0.00922 | 3.6005 | 301.5153 | 57.7039 | 14.13028 | – |
| 2026 May 04 17:57 | 2026 Apr 29 17:20:45 | 99.0529 | 0.00929 | 3.2615 | 315.7174 | 57.7039 | 14.13028 | – |
| 2026 May 03 17:57 | 2026 Apr 29 17:20:45 | 99.0529 | 0.00929 | 3.2615 | 315.7174 | 57.7039 | 14.13028 | – |
| 2026 May 02 17:57 | 2026 Apr 29 17:20:45 | 99.0529 | 0.00929 | 3.2615 | 315.7174 | 57.7039 | 14.13028 | – |
| 2026 May 01 17:56 | 2026 Apr 29 17:20:45 | 99.0529 | 0.00929 | 3.2615 | 315.7174 | 57.7039 | 14.13028 | – |
| 2026 Apr 30 17:56 | 2026 Apr 29 17:20:45 | 99.0529 | 0.00929 | 3.2615 | 315.7174 | 57.7039 | 14.13028 | – |
| 2026 Apr 29 17:57 | 2026 Apr 24 06:29:12 | 99.0525 | 0.00938 | 2.8940 | 330.8798 | 57.7039 | 14.13028 | – |
| 2026 Apr 28 17:56 | 2026 Apr 24 06:29:12 | 99.0525 | 0.00938 | 2.8940 | 330.8798 | 57.7039 | 14.13028 | – |
| 2026 Apr 27 17:58 | 2026 Apr 24 06:29:12 | 99.0525 | 0.00938 | 2.8940 | 330.8798 | 57.7039 | 14.13028 | – |
| 2026 Apr 26 17:58 | 2026 Apr 24 06:29:12 | 99.0525 | 0.00938 | 2.8940 | 330.8798 | 57.7039 | 14.13028 | – |
| 2026 Apr 25 17:58 | 2026 Apr 24 06:29:12 | 99.0525 | 0.00938 | 2.8940 | 330.8798 | 57.7039 | 14.13028 | – |
| 2026 Apr 24 17:59 | 2026 Apr 24 06:29:12 | 99.0525 | 0.00938 | 2.8940 | 330.8798 | 57.7039 | 14.13028 | – |
| 2026 Apr 23 17:57 | 2026 Apr 19 05:49:18 | 99.0531 | 0.00944 | 2.5551 | 344.8048 | 57.7039 | 14.13028 | – |
| 2026 Apr 22 17:57 | 2026 Apr 19 05:49:18 | 99.0531 | 0.00944 | 2.5551 | 344.8048 | 57.7039 | 14.13028 | – |
| 2026 Apr 21 17:57 | 2026 Apr 19 05:49:18 | 99.0531 | 0.00944 | 2.5551 | 344.8048 | 57.7039 | 14.13028 | – |
| 2026 Apr 20 17:57 | 2026 Apr 19 05:49:18 | 99.0531 | 0.00944 | 2.5551 | 344.8048 | 57.7039 | 14.13028 | – |
| 2026 Apr 19 17:58 | 2026 Apr 19 05:49:18 | 99.0531 | 0.00944 | 2.5551 | 344.8048 | 57.7039 | 14.13028 | – |
| 2026 Apr 18 17:56 | 2026 Apr 12 19:09:48 | 99.0520 | 0.00950 | 2.1207 | 2.5410 | 57.7039 | 14.13028 | – |
| 2026 Apr 16 17:57 | 2026 Apr 12 19:09:48 | 99.0520 | 0.00950 | 2.1207 | 2.5410 | 57.7039 | 14.13028 | – |
| 2026 Apr 14 17:57 | 2026 Apr 12 19:09:48 | 99.0520 | 0.00950 | 2.1207 | 2.5410 | 57.7039 | 14.13028 | – |
| 2026 Apr 13 17:57 | 2026 Apr 12 19:09:48 | 99.0520 | 0.00950 | 2.1207 | 2.5410 | 57.7039 | 14.13028 | – |
| 2026 Apr 12 17:57 | 2026 Apr 08 06:23:27 | 99.0517 | 0.00953 | 1.8153 | 14.9050 | 57.7039 | 14.13028 | – |
| 2026 Apr 11 17:57 | 2026 Apr 08 06:23:27 | 99.0517 | 0.00953 | 1.8153 | 14.9050 | 57.7039 | 14.13028 | – |